Time;durP1;ratioP1;P1;durP2;ratioP2;P2;SDS_P1;SDS_P2;PMS_P1;PMS_P2;Temp;Humidity;BMP_temperature;BMP_pressure;BME280_temperature;BME280_humidity;BME280_pressure;Samples;Min_cycle;Max_cycle;Signal;HPM_P1;HPM_P2
2022/09/13 00:01:03;;;;;;;9.70;6.30;;;;;;;11.53;100.00;100331.13;5003087;28;20125;-78
2022/09/13 00:03:28;;;;;;;11.07;7.00;;;;;;;11.53;100.00;100335.53;5003218;28;20101;-77
2022/09/13 00:05:54;;;;;;;5.90;5.30;;;;;;;11.55;100.00;100329.34;5009081;28;20034;-78
2022/09/13 00:08:20;;;;;;;8.73;7.20;;;;;;;11.56;100.00;100330.19;5004412;28;20516;-77
2022/09/13 00:10:45;;;;;;;7.95;5.93;;;;;;;11.55;100.00;100320.50;5003143;28;20496;-77
2022/09/13 00:13:12;;;;;;;6.18;5.57;;;;;;;11.53;100.00;100322.31;5005419;28;20033;-77
2022/09/13 00:15:46;;;;;;;5.75;5.25;;;;;;;11.52;100.00;100323.19;5002974;28;20043;-77
2022/09/13 00:18:12;;;;;;;7.63;6.53;;;;;;;11.50;100.00;100312.66;5004982;28;20497;-77
2022/09/13 00:20:37;;;;;;;7.78;6.82;;;;;;;11.50;100.00;100315.31;5005935;28;20130;-77
2022/09/13 00:23:03;;;;;;;8.57;6.75;;;;;;;11.50;100.00;100317.03;5007658;28;20034;-77
2022/09/13 00:25:28;;;;;;;8.88;6.60;;;;;;;11.45;100.00;100309.22;5003005;28;20046;-77
2022/09/13 00:27:53;;;;;;;6.00;5.35;;;;;;;11.47;100.00;100309.16;5006429;28;20127;-77
2022/09/13 00:30:19;;;;;;;8.43;6.20;;;;;;;11.48;100.00;100303.88;5010204;28;20042;-78
2022/09/13 00:32:44;;;;;;;8.15;6.28;;;;;;;11.48;100.00;100295.09;5008006;28;20063;-77
2022/09/13 00:35:10;;;;;;;6.18;5.57;;;;;;;11.48;100.00;100300.38;5007665;28;20138;-77
2022/09/13 00:37:35;;;;;;;6.65;5.95;;;;;;;11.49;100.00;100296.81;5002473;28;20112;-77
2022/09/13 00:40:01;;;;;;;6.75;6.05;;;;;;;11.48;100.00;100289.78;5005114;28;20485;-77
2022/09/13 00:42:28;;;;;;;6.30;5.65;;;;;;;11.48;100.00;100289.78;5012010;28;20404;-77
2022/09/13 00:45:22;;;;;;;6.45;5.75;;;;;;;11.47;100.00;100291.53;5002724;28;20066;-77
2022/09/13 00:47:57;;;;;;;5.45;4.95;;;;;;;11.45;100.00;100274.84;5001697;28;20149;-77
2022/09/13 00:50:27;;;;;;;6.68;5.97;;;;;;;11.45;100.00;100280.13;5001515;28;20367;-77
2022/09/13 00:53:06;;;;;;;5.85;5.05;;;;;;;11.43;100.00;100271.34;5009261;28;20042;-77
2022/09/13 00:55:37;;;;;;;9.20;5.40;;;;;;;11.34;100.00;100272.38;5002343;28;20085;-77
2022/09/13 00:58:07;;;;;;;5.75;5.15;;;;;;;11.29;100.00;100276.81;5001055;28;20107;-77
2022/09/13 01:00:33;;;;;;;9.80;6.50;;;;;;;11.24;100.00;100262.81;5003967;28;20522;-77
2022/09/13 01:03:02;;;;;;;6.85;6.15;;;;;;;11.24;100.00;100267.19;4999409;28;20073;-77
2022/09/13 01:05:34;;;;;;;7.13;6.43;;;;;;;11.20;100.00;100263.72;5020276;28;20538;-77
2022/09/13 01:08:00;;;;;;;7.70;6.45;;;;;;;11.21;100.00;100252.25;5005984;28;20037;-77
2022/09/13 01:10:26;;;;;;;7.25;6.15;;;;;;;11.20;100.00;100250.53;5006669;28;20053;-78
2022/09/13 01:13:13;;;;;;;8.65;6.82;;;;;;;11.22;100.00;100254.03;5002796;28;20044;-77
2022/09/13 01:15:39;;;;;;;7.97;6.85;;;;;;;11.17;100.00;100243.50;5003742;28;20044;-78
2022/09/13 01:18:05;;;;;;;8.10;7.13;;;;;;;11.16;100.00;100235.59;5002661;28;20404;-78
2022/09/13 01:21:08;;;;;;;8.60;7.55;;;;;;;11.15;100.00;100240.00;5005268;28;20046;-77
2022/09/13 01:24:19;;;;;;;7.18;6.47;;;;;;;11.16;100.00;100232.94;5002747;28;20042;-77
2022/09/13 01:27:13;;;;;;;8.02;6.78;;;;;;;11.17;100.00;100224.16;5000820;28;20035;-77
2022/09/13 01:30:02;;;;;;;9.57;8.32;;;;;;;11.16;100.00;100214.47;5002515;28;20483;-76
2022/09/13 01:32:50;;;;;;;10.82;7.30;;;;;;;11.15;100.00;100212.72;5017266;28;20421;-77
2022/09/13 01:35:49;;;;;;;10.63;8.23;;;;;;;11.15;100.00;100210.09;5001067;28;20112;-77
2022/09/13 01:38:26;;;;;;;10.35;7.28;;;;;;;11.13;100.00;100207.47;5007128;28;20026;-77
2022/09/13 01:41:25;;;;;;;7.97;7.15;;;;;;;11.11;100.00;100205.75;5001441;28;20042;-77
2022/09/13 01:44:17;;;;;;;8.13;6.63;;;;;;;11.08;100.00;100213.69;5002946;28;20504;-77
2022/09/13 01:46:53;;;;;;;13.00;7.37;;;;;;;11.06;100.00;100213.72;5007296;28;20044;-76
2022/09/13 01:49:40;;;;;;;7.90;6.40;;;;;;;11.04;100.00;100214.66;5005104;28;20288;-77
2022/09/13 01:52:17;;;;;;;7.28;6.43;;;;;;;10.99;100.00;100214.69;5005589;28;20084;-77
2022/09/13 01:54:56;;;;;;;9.57;6.55;;;;;;;10.93;100.00;100213.00;5003128;28;20041;-77
2022/09/13 01:57:31;;;;;;;10.02;6.78;;;;;;;10.92;100.00;100213.88;5005631;28;20400;-78
2022/09/13 02:00:07;;;;;;;6.47;5.88;;;;;;;10.91;100.00;100203.38;5001838;28;20548;-77
2022/09/13 02:02:54;;;;;;;6.82;6.13;;;;;;;10.85;100.00;100208.72;5001982;28;20125;-77
2022/09/13 02:05:31;;;;;;;7.85;6.30;;;;;;;10.82;100.00;100203.47;5001449;28;20058;-77
2022/09/13 02:08:07;;;;;;;5.90;5.30;;;;;;;10.77;100.00;100200.91;5001037;28;20038;-77
2022/09/13 02:10:37;;;;;;;6.07;5.47;;;;;;;10.70;100.00;100191.31;5001639;28;20038;-77
2022/09/13 02:13:06;;;;;;;8.50;7.20;;;;;;;10.72;100.00;100190.41;5001677;28;20042;-77
2022/09/13 02:15:37;;;;;;;8.18;6.47;;;;;;;10.74;100.00;100185.06;5003686;28;20046;-77
2022/09/13 02:18:17;;;;;;;7.88;7.00;;;;;;;10.77;100.00;100198.25;5001279;28;20053;-76
2022/09/13 02:20:46;;;;;;;7.15;6.45;;;;;;;10.74;100.00;100191.25;5003498;28;20077;-77
2022/09/13 02:23:17;;;;;;;8.10;6.18;;;;;;;10.70;100.00;100189.53;5000682;28;20046;-77
2022/09/13 02:25:45;;;;;;;6.22;5.63;;;;;;;10.68;100.00;100187.81;5000886;28;20065;-77
2022/09/13 02:28:13;;;;;;;7.57;6.75;;;;;;;10.62;100.00;100187.88;5002991;28;20033;-76
2022/09/13 02:30:45;;;;;;;8.15;6.45;;;;;;;10.58;100.00;100187.03;4999175;28;20045;-77
2022/09/13 02:33:17;;;;;;;6.05;5.45;;;;;;;10.55;100.00;100188.84;5002340;28;20048;-77
2022/09/13 02:35:50;;;;;;;6.10;5.55;;;;;;;10.56;100.00;100191.47;5002956;28;20041;-77
2022/09/13 02:38:38;;;;;;;5.75;5.15;;;;;;;10.53;100.00;100189.75;5000728;28;20481;-77
2022/09/13 02:41:27;;;;;;;6.32;5.50;;;;;;;10.59;100.00;100187.94;5000468;28;20505;-78
2022/09/13 02:44:00;;;;;;;7.07;6.30;;;;;;;10.60;100.00;100181.75;5000447;28;20511;-77
2022/09/13 02:46:46;;;;;;;6.80;6.10;;;;;;;10.58;100.00;100180.88;5016238;28;20079;-77
2022/09/13 02:49:37;;;;;;;6.50;5.75;;;;;;;10.59;100.00;100172.09;5006464;28;20057;-77
2022/09/13 02:52:21;;;;;;;8.23;7.10;;;;;;;10.61;100.00;100170.28;5012680;28;20149;-77
2022/09/13 02:55:06;;;;;;;7.32;6.63;;;;;;;10.63;100.00;100160.59;5003358;28;20049;-77
2022/09/13 02:57:46;;;;;;;9.05;7.28;;;;;;;10.64;100.00;100162.38;5000403;28;20034;-77
2022/09/13 03:00:12;;;;;;;7.25;6.53;;;;;;;10.65;100.00;100158.81;5006066;28;20124;-77
2022/09/13 03:02:40;;;;;;;6.00;5.38;;;;;;;10.66;100.00;100160.53;5013134;28;20164;-77
2022/09/13 03:05:05;;;;;;;6.53;5.60;;;;;;;10.77;100.00;100156.03;5000605;28;20038;-77
2022/09/13 03:07:31;;;;;;;8.65;6.30;;;;;;;10.80;100.00;100142.78;5002021;28;20045;-77
2022/09/13 03:10:03;;;;;;;7.05;6.35;;;;;;;10.81;100.00;100141.88;5001822;28;20493;-77
2022/09/13 03:13:07;;;;;;;7.72;6.40;;;;;;;10.80;100.00;100134.00;4999688;28;20074;-77
2022/09/13 03:15:57;;;;;;;7.30;6.60;;;;;;;10.79;100.00;100132.22;4962316;28;20474;-77
2022/09/13 03:18:47;;;;;;;8.30;6.80;;;;;;;10.81;100.00;100122.53;5003235;28;20394;-77
2022/09/13 03:21:18;;;;;;;7.47;6.57;;;;;;;10.82;100.00;100126.91;5006928;28;20478;-77
2022/09/13 03:24:17;;;;;;;11.00;6.87;;;;;;;10.85;100.00;100122.47;5006960;28;20030;-77
2022/09/13 03:27:03;;;;;;;8.43;7.03;;;;;;;10.91;100.00;100125.03;5004325;28;20507;-77
2022/09/13 03:29:43;;;;;;;11.77;6.65;;;;;;;10.92;100.00;100126.75;5003828;28;20039;-77
2022/09/13 03:32:28;;;;;;;9.00;5.72;;;;;;;10.90;100.00;100122.44;5004095;28;20165;-77
2022/09/13 03:35:06;;;;;;;8.00;7.03;;;;;;;10.87;100.00;100123.34;5005823;28;20373;-77
2022/09/13 03:37:54;;;;;;;11.55;6.18;;;;;;;10.88;100.00;100121.56;5003993;28;20042;-77
2022/09/13 03:40:32;;;;;;;6.97;6.25;;;;;;;10.86;100.00;100116.28;5003816;28;20133;-76
2022/09/13 03:42:57;;;;;;;7.13;6.43;;;;;;;10.77;100.00;100115.53;5003934;28;20039;-77
2022/09/13 03:45:27;;;;;;;9.25;6.80;;;;;;;10.71;100.00;100120.00;5006581;28;20504;-78
2022/09/13 03:47:54;;;;;;;8.65;7.20;;;;;;;10.74;100.00;100116.44;5007424;28;20117;-77
2022/09/13 03:50:22;;;;;;;7.10;6.30;;;;;;;10.72;100.00;100118.25;5005832;28;20062;-77
2022/09/13 03:52:52;;;;;;;6.57;5.80;;;;;;;10.68;100.00;100127.09;5011389;28;20069;-77
2022/09/13 03:55:20;;;;;;;7.85;6.20;;;;;;;10.62;100.00;100125.41;5010442;28;20407;-77
2022/09/13 03:57:46;;;;;;;6.68;5.90;;;;;;;10.61;100.00;100121.03;5009517;28;20053;-78
2022/09/13 04:00:13;;;;;;;8.50;7.60;;;;;;;10.58;100.00;100125.47;5007897;28;20041;-77
2022/09/13 04:02:40;;;;;;;12.85;6.57;;;;;;;10.57;100.00;100121.09;5008695;28;20068;-77
2022/09/13 04:05:06;;;;;;;7.60;6.72;;;;;;;10.57;100.00;100108.78;5013531;28;20030;-78
2022/09/13 04:07:31;;;;;;;8.35;7.22;;;;;;;10.57;100.00;100113.19;5009576;28;20075;-77
2022/09/13 04:09:56;;;;;;;7.85;7.07;;;;;;;10.60;100.00;100107.84;5003172;28;20113;-77
2022/09/13 04:12:22;;;;;;;10.60;7.78;;;;;;;10.57;100.00;100105.25;5005370;28;20519;-77
2022/09/13 04:14:47;;;;;;;8.02;6.65;;;;;;;10.56;100.00;100106.13;4999913;28;20039;-77
2022/09/13 04:17:13;;;;;;;7.38;5.95;;;;;;;10.51;100.00;100099.16;5004848;28;20042;-77
2022/09/13 04:19:39;;;;;;;9.82;5.88;;;;;;;10.53;100.00;100101.78;5008367;28;20069;-77
2022/09/13 04:22:05;;;;;;;6.15;5.35;;;;;;;10.47;100.00;100108.00;5008930;28;20539;-78
2022/09/13 04:24:31;;;;;;;6.68;5.35;;;;;;;10.47;100.00;100107.13;5008024;28;20045;-77
2022/09/13 04:26:56;;;;;;;8.48;7.68;;;;;;;10.49;100.00;100108.88;5007200;28;20037;-77
2022/09/13 04:29:24;;;;;;;9.25;7.55;;;;;;;10.53;100.00;100109.69;5017468;28;20395;-76
2022/09/13 04:31:51;;;;;;;7.45;6.47;;;;;;;10.55;100.00;100107.03;5014878;28;20037;-76
2022/09/13 04:34:17;;;;;;;9.10;7.68;;;;;;;10.57;100.00;100102.63;5019819;28;20038;-77
2022/09/13 04:36:43;;;;;;;7.40;6.63;;;;;;;10.61;100.00;100099.03;5015453;28;20041;-77
2022/09/13 04:39:09;;;;;;;9.60;7.03;;;;;;;10.63;100.00;100102.53;5015670;28;20037;-77
2022/09/13 04:41:34;;;;;;;8.77;7.15;;;;;;;10.67;100.00;100105.13;5007587;28;20084;-77
2022/09/13 04:44:00;;;;;;;7.18;6.43;;;;;;;10.65;100.00;100103.41;5004688;28;20096;-77
2022/09/13 04:46:26;;;;;;;11.00;7.00;;;;;;;10.70;100.00;100104.22;5007836;28;20041;-77
2022/09/13 04:48:52;;;;;;;8.25;6.25;;;;;;;10.80;100.00;100097.91;5007104;28;20044;-77
2022/09/13 04:51:18;;;;;;;9.07;7.18;;;;;;;10.93;100.00;100095.97;5010157;28;20036;-77
2022/09/13 04:53:52;;;;;;;8.68;7.65;;;;;;;11.06;100.00;100086.97;5011887;28;20038;-77
2022/09/13 04:56:18;;;;;;;8.40;7.07;;;;;;;11.08;100.00;100084.28;5008980;28;20037;-77
2022/09/13 04:58:43;;;;;;;7.90;7.07;;;;;;;11.11;100.00;100092.19;5008238;28;20033;-77
2022/09/13 05:01:09;;;;;;;19.25;14.02;;;;;;;11.10;100.00;100093.06;5015802;28;20036;-77
2022/09/13 05:03:36;;;;;;;7.70;6.90;;;;;;;11.19;100.00;100096.44;5011699;28;20041;-77
2022/09/13 05:06:07;;;;;;;6.50;5.80;;;;;;;11.23;100.00;100099.03;5007553;28;20041;-77
2022/09/13 05:08:33;;;;;;;7.78;6.47;;;;;;;11.29;100.00;100104.22;5005781;28;20122;-78
2022/09/13 05:10:59;;;;;;;8.90;7.38;;;;;;;11.31;100.00;100100.66;4986665;28;20141;-77
2022/09/13 05:13:25;;;;;;;10.25;7.75;;;;;;;11.39;100.00;100101.41;5010317;28;20036;-77
2022/09/13 05:15:55;;;;;;;13.32;7.90;;;;;;;11.51;100.00;100100.34;5002246;28;20046;-77
2022/09/13 05:18:21;;;;;;;8.27;7.32;;;;;;;11.57;100.00;100094.06;5003340;28;20041;-77
2022/09/13 05:20:46;;;;;;;8.05;7.25;;;;;;;11.67;100.00;100087.72;5006619;28;20038;-77
2022/09/13 05:23:11;;;;;;;9.38;6.63;;;;;;;11.72;100.00;100082.38;5006205;28;20051;-78
2022/09/13 05:25:37;;;;;;;8.25;7.35;;;;;;;11.77;100.00;100088.44;5001613;28;20447;-77
2022/09/13 05:28:02;;;;;;;9.15;7.80;;;;;;;11.78;100.00;100087.53;5004622;28;20564;-77
2022/09/13 05:30:27;;;;;;;10.20;7.43;;;;;;;11.80;100.00;100083.09;5002116;28;20518;-77
2022/09/13 05:32:53;;;;;;;7.00;6.20;;;;;;;11.89;100.00;100084.72;5003080;28;20121;-76
2022/09/13 05:35:19;;;;;;;12.20;7.43;;;;;;;12.04;100.00;100079.13;5003453;28;20077;-77
2022/09/13 05:37:44;;;;;;;7.85;7.05;;;;;;;12.16;100.00;100078.03;5002088;28;20042;-77
2022/09/13 05:40:09;;;;;;;9.43;7.63;;;;;;;12.32;100.00;100074.19;5007685;28;20037;-77
2022/09/13 05:42:35;;;;;;;11.38;8.18;;;;;;;12.50;99.86;100063.22;5006573;28;20038;-77
2022/09/13 05:45:00;;;;;;;11.82;10.63;;;;;;;12.68;99.11;100056.66;5006808;28;20033;-78
2022/09/13 05:47:25;;;;;;;11.45;9.27;;;;;;;12.87;98.65;100056.22;5004701;28;20451;-77
2022/09/13 05:49:51;;;;;;;13.02;8.80;;;;;;;13.04;98.63;100048.72;5002745;28;20088;-77
2022/09/13 05:52:16;;;;;;;10.57;9.35;;;;;;;13.28;98.57;100051.72;5004599;28;20049;-78
2022/09/13 05:54:41;;;;;;;10.35;9.02;;;;;;;13.48;97.65;100049.44;5004011;28;20054;-77
2022/09/13 05:57:07;;;;;;;11.40;10.18;;;;;;;13.58;97.44;100040.34;5004338;28;20057;-78
2022/09/13 05:59:32;;;;;;;11.02;8.85;;;;;;;13.72;96.53;100036.44;5003860;28;20121;-77
2022/09/13 06:01:58;;;;;;;11.18;8.48;;;;;;;13.79;96.61;100044.22;5001857;28;20050;-77
2022/09/13 06:04:23;;;;;;;10.35;9.35;;;;;;;13.87;96.95;100045.78;5003046;28;20060;-77
2022/09/13 06:06:49;;;;;;;13.20;9.60;;;;;;;13.84;96.06;100040.56;5004734;28;20026;-78
2022/09/13 06:09:14;;;;;;;14.60;9.43;;;;;;;13.87;96.64;100053.75;5006853;28;20045;-77
2022/09/13 06:11:39;;;;;;;11.50;8.00;;;;;;;13.93;96.71;100056.22;5010255;28;20057;-77
2022/09/13 06:14:05;;;;;;;9.10;8.20;;;;;;;14.10;96.92;100058.41;5015123;28;20034;-76
2022/09/13 06:16:30;;;;;;;17.13;9.50;;;;;;;14.25;96.62;100047.34;5006831;28;20048;-75
2022/09/13 06:18:57;;;;;;;10.40;8.25;;;;;;;14.43;95.46;100036.19;5003466;28;20037;-75
2022/09/13 06:21:22;;;;;;;8.27;7.20;;;;;;;14.59;93.67;100041.06;5004340;28;20049;-75
2022/09/13 06:23:50;;;;;;;10.57;9.15;;;;;;;14.65;93.07;100028.47;5003492;28;20042;-75
2022/09/13 06:26:18;;;;;;;8.98;7.95;;;;;;;14.86;92.12;100026.06;5009820;28;20104;-76
2022/09/13 06:28:48;;;;;;;10.02;9.00;;;;;;;15.04;91.06;100033.47;5011301;28;20056;-76
2022/09/13 06:31:15;;;;;;;15.30;8.57;;;;;;;15.28;90.80;100028.25;5013748;28;20052;-76
2022/09/13 06:33:42;;;;;;;10.65;9.60;;;;;;;15.46;89.63;100030.28;5012427;28;20033;-76
2022/09/13 06:36:13;;;;;;;11.32;10.13;;;;;;;15.72;88.64;100024.09;5012274;28;20033;-76
2022/09/13 06:38:39;;;;;;;12.13;9.13;;;;;;;15.86;87.93;100028.06;5013625;28;20428;-76
2022/09/13 06:41:10;;;;;;;12.65;8.13;;;;;;;16.06;86.78;100030.88;5008990;28;20092;-76
2022/09/13 06:43:35;;;;;;;13.35;8.30;;;;;;;16.10;86.98;100035.13;5003854;28;20040;-76
2022/09/13 06:46:07;;;;;;;11.13;8.43;;;;;;;16.26;85.95;100022.13;5003949;28;20034;-75
2022/09/13 06:48:35;;;;;;;9.02;8.13;;;;;;;16.39;85.76;100030.53;5000869;28;20145;-76
2022/09/13 06:51:02;;;;;;;9.63;8.57;;;;;;;16.45;85.41;100016.97;5004719;28;20408;-76
2022/09/13 06:53:29;;;;;;;8.90;7.93;;;;;;;16.37;86.07;100029.69;5000098;28;20034;-76
2022/09/13 06:56:11;;;;;;;9.57;8.68;;;;;;;16.28;86.56;100020.28;5003130;28;20091;-75
2022/09/13 06:58:38;;;;;;;11.80;9.37;;;;;;;16.26;86.18;100023.91;5002386;28;20165;-75
2022/09/13 07:01:12;;;;;;;10.25;8.27;;;;;;;16.19;86.48;100020.59;4999756;28;20300;-76
2022/09/13 07:03:39;;;;;;;10.73;7.80;;;;;;;16.21;86.46;100018.75;5001124;28;20041;-76
2022/09/13 07:06:09;;;;;;;8.63;7.72;;;;;;;16.19;86.26;100017.94;5000205;28;20077;-76
2022/09/13 07:08:35;;;;;;;9.93;8.15;;;;;;;16.18;86.47;100019.75;5003421;28;20065;-76
2022/09/13 07:11:00;;;;;;;9.73;8.60;;;;;;;16.19;86.11;100023.25;5008533;28;20043;-76
2022/09/13 07:13:25;;;;;;;8.93;7.88;;;;;;;16.17;87.13;100028.66;5003709;28;20033;-76
2022/09/13 07:15:51;;;;;;;11.75;8.15;;;;;;;16.11;87.36;100028.91;5005869;28;20045;-76
2022/09/13 07:18:16;;;;;;;12.43;9.40;;;;;;;16.10;87.54;100032.47;5009132;28;20112;-76
2022/09/13 07:20:41;;;;;;;10.52;8.02;;;;;;;16.14;87.38;100028.78;5003488;28;20041;-76
2022/09/13 07:23:06;;;;;;;11.57;8.43;;;;;;;16.09;87.96;100035.22;5003469;28;20036;-75
2022/09/13 07:25:32;;;;;;;13.98;12.05;;;;;;;16.11;88.42;100044.88;5009520;28;20034;-76
2022/09/13 07:27:57;;;;;;;10.95;9.65;;;;;;;16.08;89.38;100044.97;5003101;28;20057;-76
2022/09/13 07:30:24;;;;;;;12.70;9.82;;;;;;;16.00;89.99;100047.03;5000440;28;20038;-76
2022/09/13 07:32:49;;;;;;;10.55;9.43;;;;;;;15.97;91.32;100049.81;5008089;28;20038;-76
2022/09/13 07:35:15;;;;;;;12.93;10.93;;;;;;;15.84;92.23;100053.84;5003534;28;20049;-76
2022/09/13 07:37:41;;;;;;;11.50;9.35;;;;;;;15.80;92.81;100041.56;5000340;28;20042;-76
2022/09/13 07:40:07;;;;;;;11.20;9.60;;;;;;;15.81;92.28;100040.66;5002745;28;20038;-76
2022/09/13 07:42:32;;;;;;;10.70;9.57;;;;;;;15.81;93.81;100045.97;4999418;28;20030;-76
2022/09/13 07:44:57;;;;;;;11.30;9.55;;;;;;;15.76;93.52;100048.78;5002209;28;20041;-75
2022/09/13 07:47:23;;;;;;;10.95;9.30;;;;;;;15.83;93.87;100050.31;5000733;28;20084;-75
2022/09/13 07:49:49;;;;;;;11.52;8.88;;;;;;;15.92;93.91;100049.97;5001083;28;20037;-75
2022/09/13 07:52:14;;;;;;;16.10;11.60;;;;;;;16.04;94.61;100056.66;5010620;28;20512;-75
2022/09/13 07:54:40;;;;;;;12.77;11.32;;;;;;;16.20;93.56;100049.84;5006076;28;20038;-75
2022/09/13 07:57:05;;;;;;;11.93;9.65;;;;;;;16.44;92.65;100041.88;5002706;28;20045;-76
2022/09/13 07:59:30;;;;;;;12.95;10.50;;;;;;;16.57;92.55;100040.47;5000439;28;20042;-75
2022/09/13 08:01:56;;;;;;;10.95;9.85;;;;;;;16.74;90.88;100033.59;5004462;28;20060;-76
2022/09/13 08:04:24;;;;;;;13.38;11.70;;;;;;;16.99;90.87;100025.53;5001629;28;20041;-75
2022/09/13 08:06:52;;;;;;;16.70;13.07;;;;;;;17.23;89.33;100023.66;5007365;28;20436;-75
2022/09/13 08:09:17;;;;;;;13.52;11.70;;;;;;;17.40;87.74;100029.16;4996962;28;20033;-75
2022/09/13 08:11:46;;;;;;;12.05;10.82;;;;;;;17.52;87.29;100022.41;5013330;28;20116;-76
2022/09/13 08:14:14;;;;;;;14.82;13.32;;;;;;;17.69;86.59;100019.91;5010346;28;20022;-75
2022/09/13 08:16:39;;;;;;;15.48;11.95;;;;;;;17.75;85.08;100018.75;5016198;28;20041;-75
2022/09/13 08:19:06;;;;;;;11.77;10.65;;;;;;;18.03;84.90;100013.09;5017327;28;20152;-75
2022/09/13 08:21:36;;;;;;;13.05;11.73;;;;;;;18.14;84.42;100004.59;5016575;28;20559;-75
2022/09/13 08:24:03;;;;;;;13.50;12.07;;;;;;;18.40;84.03;99995.38;5016729;28;20052;-75
2022/09/13 08:26:31;;;;;;;12.25;9.85;;;;;;;18.59;81.93;99990.03;5006864;28;20042;-75
2022/09/13 08:28:59;;;;;;;13.48;10.07;;;;;;;18.72;81.22;99996.50;5003939;28;20030;-76
2022/09/13 08:31:25;;;;;;;12.20;10.90;;;;;;;18.80;81.09;99990.81;5005376;28;20037;-76
2022/09/13 08:33:50;;;;;;;11.07;10.07;;;;;;;19.00;79.97;99995.22;5002784;28;20034;-76
2022/09/13 08:36:17;;;;;;;12.57;11.27;;;;;;;19.14;79.55;99986.50;5005822;28;20033;-76
2022/09/13 08:38:47;;;;;;;12.20;9.88;;;;;;;19.20;78.01;99981.72;5004264;28;20034;-76
2022/09/13 08:41:34;;;;;;;10.60;9.57;;;;;;;19.16;77.78;99982.78;5002162;28;20059;-76
2022/09/13 08:44:08;;;;;;;11.43;10.25;;;;;;;19.38;77.04;99981.69;5011877;28;20046;-76
2022/09/13 08:46:58;;;;;;;11.73;10.55;;;;;;;19.72;75.21;99982.66;5010037;28;20048;-76
2022/09/13 08:49:39;;;;;;;12.95;11.43;;;;;;;19.96;76.06;99985.84;5017940;28;20042;-76
2022/09/13 08:52:23;;;;;;;11.38;10.20;;;;;;;20.16;72.30;99992.81;5006692;28;20030;-75
2022/09/13 08:54:50;;;;;;;12.57;11.27;;;;;;;20.15;74.24;99989.28;5004524;28;20462;-76
2022/09/13 08:57:28;;;;;;;13.13;11.75;;;;;;;20.17;72.67;99990.03;5001002;28;20050;-76
2022/09/13 09:00:33;;;;;;;13.82;11.82;;;;;;;20.13;70.78;99986.66;5003500;28;20034;-76
2022/09/13 09:03:18;;;;;;;11.85;10.50;;;;;;;20.03;71.81;99998.81;5001277;28;20534;-76
2022/09/13 09:05:48;;;;;;;11.85;10.63;;;;;;;20.11;70.74;99985.88;5005355;28;20077;-75
2022/09/13 09:08:30;;;;;;;13.43;10.82;;;;;;;20.29;69.98;99988.50;4998334;28;20044;-76
2022/09/13 09:10:57;;;;;;;12.43;11.13;;;;;;;20.42;69.73;99994.06;5004206;28;20033;-75
2022/09/13 09:13:28;;;;;;;12.38;11.18;;;;;;;20.43;68.64;99996.63;5002105;28;20077;-76
2022/09/13 09:15:59;;;;;;;11.35;10.25;;;;;;;20.50;68.67;100003.41;5012593;28;20488;-76
2022/09/13 09:18:30;;;;;;;11.05;9.68;;;;;;;20.65;67.95;100000.84;5005144;28;20041;-76
2022/09/13 09:20:57;;;;;;;13.57;12.27;;;;;;;20.76;67.16;99993.06;5007701;28;20045;-76
2022/09/13 09:23:27;;;;;;;12.23;11.02;;;;;;;20.80;66.50;100005.31;5003644;28;20547;-76
2022/09/13 09:26:18;;;;;;;10.48;9.45;;;;;;;20.68;66.15;99987.28;5004653;28;20120;-75
2022/09/13 09:29:04;;;;;;;10.93;9.73;;;;;;;20.78;67.42;99986.66;5022274;28;20124;-75
2022/09/13 09:31:39;;;;;;;14.00;10.80;;;;;;;21.17;65.95;99981.75;5008762;28;20036;-76
2022/09/13 09:34:26;;;;;;;10.88;9.88;;;;;;;21.25;64.99;99974.13;5002984;28;20045;-76
2022/09/13 09:37:11;;;;;;;13.93;12.27;;;;;;;21.36;66.05;99976.16;5005536;28;20076;-76
2022/09/13 09:39:38;;;;;;;11.82;10.35;;;;;;;21.43;64.81;99978.44;5008464;28;20046;-76
2022/09/13 09:42:10;;;;;;;10.75;9.82;;;;;;;21.27;64.55;99971.31;5007677;28;20396;-76
2022/09/13 09:44:39;;;;;;;12.27;11.10;;;;;;;21.19;64.85;99969.94;5005567;28;20511;-76
2022/09/13 09:47:23;;;;;;;13.15;11.85;;;;;;;21.22;64.92;99969.81;5005529;28;20168;-76
2022/09/13 09:50:11;;;;;;;11.98;10.95;;;;;;;21.14;64.21;99965.81;4996125;28;20099;-76
2022/09/13 09:52:56;;;;;;;12.13;10.10;;;;;;;21.24;65.25;99958.94;5004323;28;20096;-76
2022/09/13 09:55:38;;;;;;;12.57;10.73;;;;;;;21.28;64.33;99952.47;5003923;28;20744;-76
2022/09/13 09:58:07;;;;;;;13.43;10.27;;;;;;;21.40;64.82;99949.06;5022416;28;20449;-76
2022/09/13 10:00:34;;;;;;;14.05;12.02;;;;;;;21.55;63.81;99949.09;5004196;28;20077;-75
2022/09/13 10:03:24;;;;;;;13.90;12.68;;;;;;;21.72;63.71;99945.38;5006932;28;20138;-76
2022/09/13 10:05:50;;;;;;;11.70;10.60;;;;;;;21.88;63.51;99944.34;4999486;28;20049;-75
2022/09/13 10:08:29;;;;;;;12.27;11.20;;;;;;;21.98;60.20;99941.06;5005555;28;20029;-75
2022/09/13 10:10:58;;;;;;;12.68;11.48;;;;;;;22.01;61.95;99940.91;5001321;28;20038;-75
2022/09/13 10:13:25;;;;;;;13.13;11.82;;;;;;;22.08;62.22;99939.53;5000929;28;20125;-75
2022/09/13 10:16:02;;;;;;;10.75;9.75;;;;;;;22.11;61.27;99936.63;5006333;28;20030;-75
2022/09/13 10:18:30;;;;;;;12.85;11.68;;;;;;;21.92;61.58;99933.41;5005088;28;20038;-75
2022/09/13 10:21:24;;;;;;;13.70;11.80;;;;;;;22.07;61.11;99930.59;5009222;28;20095;-75
2022/09/13 10:23:50;;;;;;;11.13;9.77;;;;;;;22.17;61.45;99920.13;4990010;28;20415;-75
2022/09/13 10:26:21;;;;;;;10.77;9.18;;;;;;;22.15;61.99;99921.19;5000599;28;20034;-76
2022/09/13 10:29:02;;;;;;;13.38;9.65;;;;;;;22.19;62.30;99920.94;5010734;28;20061;-75
2022/09/13 10:31:33;;;;;;;10.45;9.52;;;;;;;22.20;60.30;99925.34;5009823;28;20084;-75
2022/09/13 10:34:02;;;;;;;11.18;10.05;;;;;;;22.15;60.71;99919.38;5009514;28;20113;-76
2022/09/13 10:36:29;;;;;;;10.88;9.90;;;;;;;22.35;60.27;99922.63;5007792;28;20038;-76
2022/09/13 10:39:04;;;;;;;11.57;10.40;;;;;;;22.62;59.17;99919.97;4999991;28;20049;-76
2022/09/13 10:41:38;;;;;;;12.27;11.00;;;;;;;22.99;58.39;99913.03;5006713;28;20485;-75
2022/09/13 10:44:06;;;;;;;13.15;11.85;;;;;;;23.24;57.41;99906.84;5005748;28;20604;-76
2022/09/13 10:46:38;;;;;;;10.88;9.98;;;;;;;23.46;55.88;99908.03;5005933;28;20396;-75
2022/09/13 10:49:04;;;;;;;12.50;11.38;;;;;;;23.62;55.13;99906.00;5018152;28;20419;-76
2022/09/13 10:51:36;;;;;;;10.75;9.75;;;;;;;23.69;54.56;99901.06;5002292;28;20038;-76
2022/09/13 10:54:16;;;;;;;13.18;12.07;;;;;;;24.01;52.91;99899.63;4999383;28;20050;-76
2022/09/13 10:56:45;;;;;;;10.90;10.00;;;;;;;23.96;52.31;99899.09;5000381;28;20440;-76
2022/09/13 10:59:22;;;;;;;10.57;9.77;;;;;;;24.12;51.56;99901.56;5000396;28;20042;-75
2022/09/13 11:02:22;;;;;;;9.93;9.00;;;;;;;24.33;51.56;99895.56;4999093;28;20042;-76
2022/09/13 11:05:05;;;;;;;11.63;10.70;;;;;;;24.04;51.85;99902.09;5003165;28;20038;-75
2022/09/13 11:07:55;;;;;;;10.25;9.23;;;;;;;23.82;52.99;99892.00;5014531;28;20062;-76
2022/09/13 11:10:31;;;;;;;12.13;10.85;;;;;;;23.80;52.42;99896.66;4999125;28;20493;-76
2022/09/13 11:13:27;;;;;;;13.65;9.15;;;;;;;23.74;53.09;99907.00;5003202;28;20045;-76
2022/09/13 11:16:06;;;;;;;9.43;8.63;;;;;;;23.38;53.78;99901.34;5005762;28;20097;-75
2022/09/13 11:18:54;;;;;;;9.10;8.23;;;;;;;23.40;54.38;99896.72;5000557;28;20042;-75
2022/09/13 11:21:31;;;;;;;9.23;8.48;;;;;;;23.32;54.48;99898.25;5013909;28;20038;-75
2022/09/13 11:24:16;;;;;;;9.07;8.38;;;;;;;23.46;54.35;99898.13;5005986;28;20120;-76
2022/09/13 11:26:56;;;;;;;9.38;8.48;;;;;;;23.62;54.22;99890.69;5007607;28;20120;-76
2022/09/13 11:29:39;;;;;;;8.68;7.68;;;;;;;23.47;53.77;99891.75;5003416;28;20083;-76
2022/09/13 11:32:22;;;;;;;9.55;8.70;;;;;;;23.46;54.02;99886.50;4997411;28;20035;-75
2022/09/13 11:35:17;;;;;;;9.98;9.18;;;;;;;23.61;53.83;99882.75;4999895;28;20034;-75
2022/09/13 11:38:10;;;;;;;8.88;8.07;;;;;;;23.68;53.60;99880.44;5002950;28;20033;-75
2022/09/13 11:41:07;;;;;;;11.00;10.00;;;;;;;23.82;53.94;99875.00;5005910;28;20069;-76